sensor_id;sensor_type;location;lat;lon;timestamp;P1;durP1;ratioP1;P2;durP2;ratioP2
22648;SDS011;11491;41.942;24.220;2023-10-13T00:01:54;8.60;;;5.10;;
22648;SDS011;11491;41.942;24.220;2023-10-13T00:04:24;8.88;;;5.30;;
22648;SDS011;11491;41.942;24.220;2023-10-13T00:06:51;7.93;;;5.25;;
22648;SDS011;11491;41.942;24.220;2023-10-13T00:09:18;8.95;;;5.45;;
22648;SDS011;11491;41.942;24.220;2023-10-13T00:11:51;7.60;;;5.45;;
22648;SDS011;11491;41.942;24.220;2023-10-13T00:14:19;8.75;;;5.10;;
22648;SDS011;11491;41.942;24.220;2023-10-13T00:16:47;8.43;;;5.43;;
22648;SDS011;11491;41.942;24.220;2023-10-13T00:19:28;8.05;;;4.85;;
22648;SDS011;11491;41.942;24.220;2023-10-13T00:22:02;11.23;;;5.57;;
22648;SDS011;11491;41.942;24.220;2023-10-13T00:24:34;7.82;;;5.40;;
22648;SDS011;11491;41.942;24.220;2023-10-13T00:27:09;7.75;;;5.30;;
22648;SDS011;11491;41.942;24.220;2023-10-13T00:29:52;9.27;;;5.35;;
22648;SDS011;11491;41.942;24.220;2023-10-13T00:32:40;8.65;;;6.13;;
22648;SDS011;11491;41.942;24.220;2023-10-13T00:35:09;9.77;;;6.05;;
22648;SDS011;11491;41.942;24.220;2023-10-13T00:37:36;10.80;;;6.82;;
22648;SDS011;11491;41.942;24.220;2023-10-13T00:40:09;8.85;;;5.93;;
22648;SDS011;11491;41.942;24.220;2023-10-13T00:42:45;9.23;;;6.88;;
22648;SDS011;11491;41.942;24.220;2023-10-13T00:45:16;9.07;;;5.45;;
22648;SDS011;11491;41.942;24.220;2023-10-13T00:47:42;8.85;;;5.95;;
22648;SDS011;11491;41.942;24.220;2023-10-13T00:50:17;8.25;;;5.68;;
22648;SDS011;11491;41.942;24.220;2023-10-13T00:52:44;6.88;;;5.40;;
22648;SDS011;11491;41.942;24.220;2023-10-13T00:55:16;8.32;;;4.90;;
22648;SDS011;11491;41.942;24.220;2023-10-13T00:57:49;7.97;;;5.10;;
22648;SDS011;11491;41.942;24.220;2023-10-13T01:00:19;9.32;;;5.43;;
22648;SDS011;11491;41.942;24.220;2023-10-13T01:02:53;9.25;;;6.03;;
22648;SDS011;11491;41.942;24.220;2023-10-13T01:05:21;9.00;;;5.30;;
22648;SDS011;11491;41.942;24.220;2023-10-13T01:07:49;7.70;;;5.60;;
22648;SDS011;11491;41.942;24.220;2023-10-13T01:10:18;10.57;;;5.55;;
22648;SDS011;11491;41.942;24.220;2023-10-13T01:12:45;8.65;;;5.25;;
22648;SDS011;11491;41.942;24.220;2023-10-13T01:15:12;7.10;;;5.70;;
22648;SDS011;11491;41.942;24.220;2023-10-13T01:17:43;7.68;;;5.60;;
22648;SDS011;11491;41.942;24.220;2023-10-13T01:20:11;8.50;;;5.30;;
22648;SDS011;11491;41.942;24.220;2023-10-13T01:22:44;7.07;;;5.07;;
22648;SDS011;11491;41.942;24.220;2023-10-13T01:25:16;6.40;;;5.00;;
22648;SDS011;11491;41.942;24.220;2023-10-13T01:27:44;7.05;;;5.20;;
22648;SDS011;11491;41.942;24.220;2023-10-13T01:30:14;8.20;;;6.00;;
22648;SDS011;11491;41.942;24.220;2023-10-13T01:32:48;7.05;;;5.40;;
22648;SDS011;11491;41.942;24.220;2023-10-13T01:35:16;7.03;;;4.95;;
22648;SDS011;11491;41.942;24.220;2023-10-13T01:37:44;11.93;;;4.88;;
22648;SDS011;11491;41.942;24.220;2023-10-13T01:40:10;9.07;;;4.93;;
22648;SDS011;11491;41.942;24.220;2023-10-13T01:42:38;9.98;;;5.38;;
22648;SDS011;11491;41.942;24.220;2023-10-13T01:45:04;6.97;;;5.35;;
22648;SDS011;11491;41.942;24.220;2023-10-13T01:47:32;7.50;;;4.72;;
22648;SDS011;11491;41.942;24.220;2023-10-13T01:49:58;7.60;;;5.22;;
22648;SDS011;11491;41.942;24.220;2023-10-13T01:52:31;9.10;;;5.40;;
22648;SDS011;11491;41.942;24.220;2023-10-13T01:54:57;7.05;;;4.68;;
22648;SDS011;11491;41.942;24.220;2023-10-13T01:57:26;9.10;;;5.25;;
22648;SDS011;11491;41.942;24.220;2023-10-13T01:59:54;7.55;;;4.72;;
22648;SDS011;11491;41.942;24.220;2023-10-13T02:02:21;8.02;;;5.07;;
22648;SDS011;11491;41.942;24.220;2023-10-13T02:04:54;7.07;;;4.95;;
22648;SDS011;11491;41.942;24.220;2023-10-13T02:07:25;7.28;;;4.82;;
22648;SDS011;11491;41.942;24.220;2023-10-13T02:09:55;6.57;;;5.15;;
22648;SDS011;11491;41.942;24.220;2023-10-13T02:12:21;6.82;;;4.82;;
22648;SDS011;11491;41.942;24.220;2023-10-13T02:15:04;8.07;;;4.60;;
22648;SDS011;11491;41.942;24.220;2023-10-13T02:17:31;7.18;;;4.95;;
22648;SDS011;11491;41.942;24.220;2023-10-13T02:20:06;7.20;;;4.63;;
22648;SDS011;11491;41.942;24.220;2023-10-13T02:22:35;6.85;;;4.68;;
22648;SDS011;11491;41.942;24.220;2023-10-13T02:25:03;6.32;;;5.15;;
22648;SDS011;11491;41.942;24.220;2023-10-13T02:27:32;6.55;;;5.03;;
22648;SDS011;11491;41.942;24.220;2023-10-13T02:30:07;6.53;;;4.82;;
22648;SDS011;11491;41.942;24.220;2023-10-13T02:32:39;9.35;;;5.15;;
22648;SDS011;11491;41.942;24.220;2023-10-13T02:35:08;6.38;;;4.88;;
22648;SDS011;11491;41.942;24.220;2023-10-13T02:37:40;6.30;;;4.68;;
22648;SDS011;11491;41.942;24.220;2023-10-13T02:40:09;5.55;;;4.47;;
22648;SDS011;11491;41.942;24.220;2023-10-13T02:42:37;5.90;;;4.72;;
22648;SDS011;11491;41.942;24.220;2023-10-13T02:45:05;6.10;;;4.63;;
22648;SDS011;11491;41.942;24.220;2023-10-13T02:47:36;9.38;;;6.28;;
22648;SDS011;11491;41.942;24.220;2023-10-13T02:50:03;10.45;;;7.30;;
22648;SDS011;11491;41.942;24.220;2023-10-13T02:52:37;10.18;;;6.20;;
22648;SDS011;11491;41.942;24.220;2023-10-13T02:55:06;8.23;;;5.88;;
22648;SDS011;11491;41.942;24.220;2023-10-13T02:57:35;8.63;;;6.30;;
22648;SDS011;11491;41.942;24.220;2023-10-13T03:00:02;9.77;;;5.40;;
22648;SDS011;11491;41.942;24.220;2023-10-13T03:02:38;7.85;;;5.35;;
22648;SDS011;11491;41.942;24.220;2023-10-13T03:05:10;9.60;;;5.30;;
22648;SDS011;11491;41.942;24.220;2023-10-13T03:07:38;11.48;;;5.25;;
22648;SDS011;11491;41.942;24.220;2023-10-13T03:10:08;7.70;;;5.32;;
22648;SDS011;11491;41.942;24.220;2023-10-13T03:12:35;6.80;;;5.18;;
22648;SDS011;11491;41.942;24.220;2023-10-13T03:15:05;8.70;;;5.97;;
22648;SDS011;11491;41.942;24.220;2023-10-13T03:17:39;12.05;;;5.68;;
22648;SDS011;11491;41.942;24.220;2023-10-13T03:20:09;7.47;;;5.47;;
22648;SDS011;11491;41.942;24.220;2023-10-13T03:22:36;12.77;;;5.70;;
22648;SDS011;11491;41.942;24.220;2023-10-13T03:25:03;7.00;;;5.32;;
22648;SDS011;11491;41.942;24.220;2023-10-13T03:27:30;10.93;;;6.03;;
22648;SDS011;11491;41.942;24.220;2023-10-13T03:30:06;13.77;;;9.00;;
22648;SDS011;11491;41.942;24.220;2023-10-13T03:32:41;15.18;;;9.88;;
22648;SDS011;11491;41.942;24.220;2023-10-13T03:35:08;16.88;;;12.35;;
22648;SDS011;11491;41.942;24.220;2023-10-13T03:37:48;15.65;;;12.60;;
22648;SDS011;11491;41.942;24.220;2023-10-13T03:40:15;14.38;;;9.82;;
22648;SDS011;11491;41.942;24.220;2023-10-13T03:42:56;14.52;;;10.73;;
22648;SDS011;11491;41.942;24.220;2023-10-13T03:45:29;12.55;;;9.93;;
22648;SDS011;11491;41.942;24.220;2023-10-13T03:48:03;13.00;;;8.85;;
22648;SDS011;11491;41.942;24.220;2023-10-13T03:50:34;11.63;;;8.43;;
22648;SDS011;11491;41.942;24.220;2023-10-13T03:53:01;11.20;;;9.10;;
22648;SDS011;11491;41.942;24.220;2023-10-13T03:55:31;12.05;;;8.10;;
22648;SDS011;11491;41.942;24.220;2023-10-13T03:58:00;8.93;;;6.63;;
22648;SDS011;11491;41.942;24.220;2023-10-13T04:00:28;14.00;;;10.82;;
22648;SDS011;11491;41.942;24.220;2023-10-13T04:02:56;16.85;;;10.13;;
22648;SDS011;11491;41.942;24.220;2023-10-13T04:05:35;14.20;;;10.35;;
22648;SDS011;11491;41.942;24.220;2023-10-13T04:08:05;11.75;;;9.40;;
22648;SDS011;11491;41.942;24.220;2023-10-13T04:10:51;11.75;;;9.20;;
22648;SDS011;11491;41.942;24.220;2023-10-13T04:13:36;9.82;;;8.40;;
22648;SDS011;11491;41.942;24.220;2023-10-13T04:19:00;8.55;;;6.97;;
22648;SDS011;11491;41.942;24.220;2023-10-13T04:21:36;10.85;;;8.50;;
22648;SDS011;11491;41.942;24.220;2023-10-13T04:24:07;11.48;;;7.28;;
22648;SDS011;11491;41.942;24.220;2023-10-13T04:26:48;9.75;;;8.05;;
22648;SDS011;11491;41.942;24.220;2023-10-13T04:29:44;9.07;;;8.05;;
22648;SDS011;11491;41.942;24.220;2023-10-13T04:32:35;10.30;;;8.38;;
22648;SDS011;11491;41.942;24.220;2023-10-13T04:35:04;11.77;;;8.30;;
22648;SDS011;11491;41.942;24.220;2023-10-13T04:37:37;10.95;;;8.40;;
22648;SDS011;11491;41.942;24.220;2023-10-13T04:40:16;14.15;;;9.90;;
22648;SDS011;11491;41.942;24.220;2023-10-13T04:42:44;9.85;;;7.57;;
22648;SDS011;11491;41.942;24.220;2023-10-13T04:45:15;8.82;;;6.45;;
22648;SDS011;11491;41.942;24.220;2023-10-13T04:48:04;12.60;;;9.48;;
22648;SDS011;11491;41.942;24.220;2023-10-13T04:50:44;13.45;;;11.35;;
22648;SDS011;11491;41.942;24.220;2023-10-13T04:53:14;12.25;;;7.05;;
22648;SDS011;11491;41.942;24.220;2023-10-13T04:55:58;15.48;;;9.57;;
22648;SDS011;11491;41.942;24.220;2023-10-13T04:58:33;17.48;;;11.52;;
22648;SDS011;11491;41.942;24.220;2023-10-13T05:01:31;17.80;;;13.75;;
22648;SDS011;11491;41.942;24.220;2023-10-13T05:04:15;24.75;;;18.98;;
22648;SDS011;11491;41.942;24.220;2023-10-13T05:06:55;25.85;;;19.92;;
22648;SDS011;11491;41.942;24.220;2023-10-13T05:09:55;28.55;;;21.48;;
22648;SDS011;11491;41.942;24.220;2023-10-13T05:12:42;27.65;;;17.70;;
22648;SDS011;11491;41.942;24.220;2023-10-13T05:15:22;26.45;;;18.83;;
22648;SDS011;11491;41.942;24.220;2023-10-13T05:20:54;51.88;;;33.75;;
22648;SDS011;11491;41.942;24.220;2023-10-13T05:23:38;56.03;;;38.13;;
22648;SDS011;11491;41.942;24.220;2023-10-13T05:26:24;58.20;;;40.97;;
22648;SDS011;11491;41.942;24.220;2023-10-13T05:29:08;52.85;;;34.90;;
22648;SDS011;11491;41.942;24.220;2023-10-13T05:34:36;26.42;;;17.73;;
22648;SDS011;11491;41.942;24.220;2023-10-13T05:37:21;28.90;;;19.33;;
22648;SDS011;11491;41.942;24.220;2023-10-13T05:40:01;34.53;;;24.70;;
22648;SDS011;11491;41.942;24.220;2023-10-13T05:42:49;47.63;;;30.70;;
22648;SDS011;11491;41.942;24.220;2023-10-13T05:45:34;38.33;;;28.60;;
22648;SDS011;11491;41.942;24.220;2023-10-13T05:48:26;25.52;;;22.75;;
22648;SDS011;11491;41.942;24.220;2023-10-13T05:51:17;20.92;;;18.42;;
22648;SDS011;11491;41.942;24.220;2023-10-13T05:54:04;21.55;;;16.45;;
22648;SDS011;11491;41.942;24.220;2023-10-13T05:56:48;29.65;;;23.88;;
22648;SDS011;11491;41.942;24.220;2023-10-13T05:59:35;35.30;;;24.77;;
22648;SDS011;11491;41.942;24.220;2023-10-13T06:02:21;55.15;;;37.08;;
22648;SDS011;11491;41.942;24.220;2023-10-13T06:05:07;38.63;;;29.45;;
22648;SDS011;11491;41.942;24.220;2023-10-13T06:07:52;27.67;;;23.33;;
22648;SDS011;11491;41.942;24.220;2023-10-13T06:10:36;29.77;;;22.10;;
22648;SDS011;11491;41.942;24.220;2023-10-13T06:13:21;25.60;;;17.13;;
22648;SDS011;11491;41.942;24.220;2023-10-13T06:16:06;23.40;;;17.13;;
22648;SDS011;11491;41.942;24.220;2023-10-13T06:18:52;22.73;;;16.08;;
22648;SDS011;11491;41.942;24.220;2023-10-13T06:21:37;34.15;;;22.58;;
22648;SDS011;11491;41.942;24.220;2023-10-13T06:24:21;33.83;;;21.23;;
22648;SDS011;11491;41.942;24.220;2023-10-13T06:27:05;25.05;;;18.70;;
22648;SDS011;11491;41.942;24.220;2023-10-13T06:32:20;25.92;;;17.27;;
22648;SDS011;11491;41.942;24.220;2023-10-13T06:34:50;24.13;;;15.40;;
22648;SDS011;11491;41.942;24.220;2023-10-13T06:37:23;32.08;;;20.10;;
22648;SDS011;11491;41.942;24.220;2023-10-13T06:39:51;33.00;;;21.25;;
22648;SDS011;11491;41.942;24.220;2023-10-13T06:42:21;23.40;;;17.35;;
22648;SDS011;11491;41.942;24.220;2023-10-13T06:44:52;18.77;;;13.95;;
22648;SDS011;11491;41.942;24.220;2023-10-13T06:47:20;14.73;;;10.48;;
22648;SDS011;11491;41.942;24.220;2023-10-13T06:49:47;15.10;;;10.70;;
22648;SDS011;11491;41.942;24.220;2023-10-13T06:52:16;12.48;;;9.77;;
22648;SDS011;11491;41.942;24.220;2023-10-13T06:54:43;11.07;;;8.68;;
22648;SDS011;11491;41.942;24.220;2023-10-13T06:57:09;9.07;;;7.05;;
22648;SDS011;11491;41.942;24.220;2023-10-13T06:59:39;9.13;;;5.90;;
22648;SDS011;11491;41.942;24.220;2023-10-13T07:02:07;9.73;;;7.50;;
22648;SDS011;11491;41.942;24.220;2023-10-13T07:04:36;8.23;;;7.00;;
22648;SDS011;11491;41.942;24.220;2023-10-13T07:07:04;7.35;;;5.68;;
22648;SDS011;11491;41.942;24.220;2023-10-13T07:09:35;7.55;;;5.63;;
22648;SDS011;11491;41.942;24.220;2023-10-13T07:12:15;9.00;;;7.00;;
22648;SDS011;11491;41.942;24.220;2023-10-13T07:14:46;12.85;;;9.52;;
22648;SDS011;11491;41.942;24.220;2023-10-13T07:17:25;11.70;;;7.28;;
22648;SDS011;11491;41.942;24.220;2023-10-13T07:19:54;8.30;;;6.70;;
22648;SDS011;11491;41.942;24.220;2023-10-13T07:22:30;9.23;;;7.05;;
22648;SDS011;11491;41.942;24.220;2023-10-13T07:25:05;7.15;;;4.97;;
22648;SDS011;11491;41.942;24.220;2023-10-13T07:27:32;5.55;;;4.43;;
22648;SDS011;11491;41.942;24.220;2023-10-13T07:30:00;8.50;;;5.43;;
22648;SDS011;11491;41.942;24.220;2023-10-13T07:32:38;6.13;;;4.75;;
22648;SDS011;11491;41.942;24.220;2023-10-13T07:35:11;8.65;;;4.13;;
22648;SDS011;11491;41.942;24.220;2023-10-13T07:37:39;7.40;;;4.38;;
22648;SDS011;11491;41.942;24.220;2023-10-13T07:40:07;5.45;;;4.00;;
22648;SDS011;11491;41.942;24.220;2023-10-13T07:42:47;7.45;;;3.92;;
22648;SDS011;11491;41.942;24.220;2023-10-13T07:45:14;7.30;;;4.35;;
22648;SDS011;11491;41.942;24.220;2023-10-13T07:47:43;7.97;;;4.10;;
22648;SDS011;11491;41.942;24.220;2023-10-13T07:50:12;6.00;;;4.00;;
22648;SDS011;11491;41.942;24.220;2023-10-13T07:52:39;5.93;;;4.05;;
22648;SDS011;11491;41.942;24.220;2023-10-13T07:55:23;9.75;;;4.70;;
22648;SDS011;11491;41.942;24.220;2023-10-13T07:57:50;5.57;;;3.88;;
22648;SDS011;11491;41.942;24.220;2023-10-13T08:00:20;6.47;;;4.22;;
22648;SDS011;11491;41.942;24.220;2023-10-13T08:03:04;8.07;;;4.47;;
22648;SDS011;11491;41.942;24.220;2023-10-13T08:05:52;9.77;;;3.85;;
22648;SDS011;11491;41.942;24.220;2023-10-13T08:08:23;8.63;;;3.92;;
22648;SDS011;11491;41.942;24.220;2023-10-13T08:11:02;6.47;;;3.53;;
22648;SDS011;11491;41.942;24.220;2023-10-13T08:13:36;5.95;;;3.45;;
22648;SDS011;11491;41.942;24.220;2023-10-13T08:16:04;7.00;;;3.17;;
22648;SDS011;11491;41.942;24.220;2023-10-13T08:18:33;6.45;;;4.10;;
22648;SDS011;11491;41.942;24.220;2023-10-13T08:21:02;7.55;;;4.05;;
22648;SDS011;11491;41.942;24.220;2023-10-13T08:23:31;8.98;;;4.10;;
22648;SDS011;11491;41.942;24.220;2023-10-13T08:26:22;8.45;;;2.80;;
22648;SDS011;11491;41.942;24.220;2023-10-13T08:29:12;5.78;;;3.35;;
22648;SDS011;11491;41.942;24.220;2023-10-13T08:31:56;5.93;;;2.78;;
22648;SDS011;11491;41.942;24.220;2023-10-13T08:34:37;8.02;;;3.17;;
22648;SDS011;11491;41.942;24.220;2023-10-13T08:37:26;4.50;;;2.92;;
22648;SDS011;11491;41.942;24.220;2023-10-13T08:39:55;9.35;;;2.95;;
22648;SDS011;11491;41.942;24.220;2023-10-13T08:42:39;4.82;;;2.72;;
22648;SDS011;11491;41.942;24.220;2023-10-13T08:45:18;6.07;;;2.25;;
22648;SDS011;11491;41.942;24.220;2023-10-13T08:48:07;5.18;;;2.42;;
22648;SDS011;11491;41.942;24.220;2023-10-13T08:50:42;4.82;;;2.97;;
22648;SDS011;11491;41.942;24.220;2023-10-13T08:53:19;4.63;;;2.50;;
22648;SDS011;11491;41.942;24.220;2023-10-13T08:55:58;4.20;;;2.20;;
22648;SDS011;11491;41.942;24.220;2023-10-13T08:58:34;4.68;;;2.47;;
22648;SDS011;11491;41.942;24.220;2023-10-13T09:01:20;5.72;;;2.42;;
22648;SDS011;11491;41.942;24.220;2023-10-13T09:04:04;3.97;;;1.88;;
22648;SDS011;11491;41.942;24.220;2023-10-13T09:06:47;5.80;;;2.70;;
22648;SDS011;11491;41.942;24.220;2023-10-13T09:09:34;4.05;;;2.47;;
22648;SDS011;11491;41.942;24.220;2023-10-13T09:12:36;5.85;;;2.45;;
22648;SDS011;11491;41.942;24.220;2023-10-13T09:15:04;7.43;;;3.00;;
22648;SDS011;11491;41.942;24.220;2023-10-13T09:17:43;8.30;;;3.30;;
22648;SDS011;11491;41.942;24.220;2023-10-13T09:20:13;6.40;;;2.65;;
22648;SDS011;11491;41.942;24.220;2023-10-13T09:22:56;4.03;;;2.42;;
22648;SDS011;11491;41.942;24.220;2023-10-13T09:25:34;3.58;;;2.88;;
22648;SDS011;11491;41.942;24.220;2023-10-13T09:28:03;5.15;;;2.00;;
22648;SDS011;11491;41.942;24.220;2023-10-13T09:30:43;5.63;;;2.20;;
22648;SDS011;11491;41.942;24.220;2023-10-13T09:33:10;5.32;;;2.40;;
22648;SDS011;11491;41.942;24.220;2023-10-13T09:35:41;3.65;;;1.92;;
22648;SDS011;11491;41.942;24.220;2023-10-13T09:38:14;3.63;;;1.65;;
22648;SDS011;11491;41.942;24.220;2023-10-13T09:40:42;3.90;;;1.83;;
22648;SDS011;11491;41.942;24.220;2023-10-13T09:43:15;4.07;;;2.20;;
22648;SDS011;11491;41.942;24.220;2023-10-13T09:45:43;4.32;;;2.97;;
22648;SDS011;11491;41.942;24.220;2023-10-13T09:48:27;4.22;;;2.45;;
22648;SDS011;11491;41.942;24.220;2023-10-13T09:50:58;3.88;;;2.10;;
22648;SDS011;11491;41.942;24.220;2023-10-13T09:53:26;3.85;;;1.73;;
22648;SDS011;11491;41.942;24.220;2023-10-13T09:55:57;3.95;;;1.88;;
22648;SDS011;11491;41.942;24.220;2023-10-13T09:58:38;5.27;;;2.20;;
22648;SDS011;11491;41.942;24.220;2023-10-13T10:01:24;3.97;;;2.40;;
22648;SDS011;11491;41.942;24.220;2023-10-13T10:04:06;3.65;;;1.88;;
22648;SDS011;11491;41.942;24.220;2023-10-13T10:06:34;4.18;;;1.95;;
22648;SDS011;11491;41.942;24.220;2023-10-13T10:09:04;3.13;;;1.90;;
22648;SDS011;11491;41.942;24.220;2023-10-13T10:14:40;4.38;;;2.10;;
22648;SDS011;11491;41.942;24.220;2023-10-13T10:17:20;4.15;;;1.90;;
22648;SDS011;11491;41.942;24.220;2023-10-13T10:19:47;3.53;;;2.30;;
22648;SDS011;11491;41.942;24.220;2023-10-13T10:22:25;4.95;;;2.17;;
22648;SDS011;11491;41.942;24.220;2023-10-13T10:24:56;4.43;;;2.33;;
22648;SDS011;11491;41.942;24.220;2023-10-13T10:27:27;4.50;;;2.30;;
22648;SDS011;11491;41.942;24.220;2023-10-13T10:29:54;6.00;;;2.58;;
22648;SDS011;11491;41.942;24.220;2023-10-13T10:32:21;3.85;;;2.25;;
22648;SDS011;11491;41.942;24.220;2023-10-13T10:35:02;3.95;;;2.45;;
22648;SDS011;11491;41.942;24.220;2023-10-13T10:37:39;3.88;;;2.25;;
22648;SDS011;11491;41.942;24.220;2023-10-13T10:40:12;4.65;;;2.55;;
22648;SDS011;11491;41.942;24.220;2023-10-13T10:42:58;3.67;;;2.22;;
22648;SDS011;11491;41.942;24.220;2023-10-13T10:45:28;4.60;;;2.45;;
22648;SDS011;11491;41.942;24.220;2023-10-13T10:47:58;5.97;;;2.55;;
22648;SDS011;11491;41.942;24.220;2023-10-13T10:50:41;4.60;;;2.30;;
22648;SDS011;11491;41.942;24.220;2023-10-13T10:53:09;5.65;;;2.63;;
22648;SDS011;11491;41.942;24.220;2023-10-13T10:55:35;4.68;;;2.47;;
22648;SDS011;11491;41.942;24.220;2023-10-13T10:58:04;3.08;;;2.10;;
22648;SDS011;11491;41.942;24.220;2023-10-13T11:00:32;4.55;;;2.72;;
22648;SDS011;11491;41.942;24.220;2023-10-13T11:03:11;5.85;;;2.72;;
22648;SDS011;11491;41.942;24.220;2023-10-13T11:05:44;5.32;;;2.35;;
22648;SDS011;11491;41.942;24.220;2023-10-13T11:08:21;4.43;;;2.28;;
22648;SDS011;11491;41.942;24.220;2023-10-13T11:10:56;4.80;;;2.53;;
22648;SDS011;11491;41.942;24.220;2023-10-13T11:13:24;2.70;;;1.80;;
22648;SDS011;11491;41.942;24.220;2023-10-13T11:15:55;3.17;;;2.00;;
22648;SDS011;11491;41.942;24.220;2023-10-13T11:18:28;4.38;;;1.90;;
22648;SDS011;11491;41.942;24.220;2023-10-13T11:20:59;6.35;;;3.60;;
22648;SDS011;11491;41.942;24.220;2023-10-13T11:23:30;8.50;;;3.00;;
22648;SDS011;11491;41.942;24.220;2023-10-13T11:25:57;8.77;;;3.08;;
22648;SDS011;11491;41.942;24.220;2023-10-13T11:28:26;6.70;;;3.65;;
22648;SDS011;11491;41.942;24.220;2023-10-13T11:30:52;6.15;;;3.63;;
22648;SDS011;11491;41.942;24.220;2023-10-13T11:33:23;4.68;;;2.97;;
22648;SDS011;11491;41.942;24.220;2023-10-13T11:35:52;6.05;;;3.45;;
22648;SDS011;11491;41.942;24.220;2023-10-13T11:38:22;5.80;;;2.80;;
22648;SDS011;11491;41.942;24.220;2023-10-13T11:40:54;5.20;;;3.25;;
22648;SDS011;11491;41.942;24.220;2023-10-13T11:43:39;5.50;;;2.97;;
22648;SDS011;11491;41.942;24.220;2023-10-13T11:46:32;8.88;;;3.50;;
22648;SDS011;11491;41.942;24.220;2023-10-13T11:49:16;4.78;;;3.35;;
22648;SDS011;11491;41.942;24.220;2023-10-13T11:51:44;4.05;;;2.88;;
22648;SDS011;11491;41.942;24.220;2023-10-13T11:54:12;5.35;;;3.55;;
22648;SDS011;11491;41.942;24.220;2023-10-13T11:56:39;6.47;;;3.10;;
22648;SDS011;11491;41.942;24.220;2023-10-13T11:59:07;4.63;;;3.00;;
22648;SDS011;11491;41.942;24.220;2023-10-13T12:01:41;4.88;;;3.05;;
22648;SDS011;11491;41.942;24.220;2023-10-13T12:04:26;6.28;;;2.92;;
22648;SDS011;11491;41.942;24.220;2023-10-13T12:07:05;7.97;;;4.03;;
22648;SDS011;11491;41.942;24.220;2023-10-13T12:09:42;6.95;;;5.00;;
22648;SDS011;11491;41.942;24.220;2023-10-13T12:12:28;4.82;;;2.90;;
22648;SDS011;11491;41.942;24.220;2023-10-13T12:14:57;7.18;;;4.13;;
22648;SDS011;11491;41.942;24.220;2023-10-13T12:17:34;9.63;;;5.45;;
22648;SDS011;11491;41.942;24.220;2023-10-13T12:20:01;4.72;;;2.78;;
22648;SDS011;11491;41.942;24.220;2023-10-13T12:22:30;6.05;;;2.95;;
22648;SDS011;11491;41.942;24.220;2023-10-13T12:25:04;14.77;;;5.40;;
22648;SDS011;11491;41.942;24.220;2023-10-13T12:27:44;45.38;;;26.25;;
22648;SDS011;11491;41.942;24.220;2023-10-13T12:30:14;9.43;;;4.80;;
22648;SDS011;11491;41.942;24.220;2023-10-13T12:32:47;7.00;;;5.50;;
22648;SDS011;11491;41.942;24.220;2023-10-13T12:35:24;9.05;;;3.10;;
22648;SDS011;11491;41.942;24.220;2023-10-13T12:37:55;3.50;;;2.55;;
22648;SDS011;11491;41.942;24.220;2023-10-13T12:40:30;5.68;;;3.03;;
22648;SDS011;11491;41.942;24.220;2023-10-13T12:43:14;4.40;;;2.55;;
22648;SDS011;11491;41.942;24.220;2023-10-13T12:45:59;4.45;;;2.53;;
22648;SDS011;11491;41.942;24.220;2023-10-13T12:48:43;7.30;;;3.03;;
22648;SDS011;11491;41.942;24.220;2023-10-13T12:51:29;5.90;;;2.55;;
22648;SDS011;11491;41.942;24.220;2023-10-13T12:54:15;4.82;;;2.92;;
22648;SDS011;11491;41.942;24.220;2023-10-13T12:56:45;6.63;;;2.15;;
22648;SDS011;11491;41.942;24.220;2023-10-13T12:59:12;2.70;;;1.60;;
22648;SDS011;11491;41.942;24.220;2023-10-13T13:01:41;2.42;;;1.70;;
22648;SDS011;11491;41.942;24.220;2023-10-13T13:04:08;3.28;;;1.85;;
22648;SDS011;11491;41.942;24.220;2023-10-13T13:06:43;5.10;;;2.13;;
22648;SDS011;11491;41.942;24.220;2023-10-13T13:09:10;6.55;;;2.28;;
22648;SDS011;11491;41.942;24.220;2023-10-13T13:11:37;4.57;;;2.25;;
22648;SDS011;11491;41.942;24.220;2023-10-13T13:14:05;3.55;;;2.00;;
22648;SDS011;11491;41.942;24.220;2023-10-13T13:16:33;5.00;;;2.83;;
22648;SDS011;11491;41.942;24.220;2023-10-13T13:19:02;3.17;;;2.33;;
22648;SDS011;11491;41.942;24.220;2023-10-13T13:21:35;4.90;;;2.70;;
22648;SDS011;11491;41.942;24.220;2023-10-13T13:24:02;4.78;;;2.53;;
22648;SDS011;11491;41.942;24.220;2023-10-13T13:26:30;5.38;;;2.40;;
22648;SDS011;11491;41.942;24.220;2023-10-13T13:28:57;7.78;;;2.33;;
22648;SDS011;11491;41.942;24.220;2023-10-13T13:31:24;5.30;;;2.90;;
22648;SDS011;11491;41.942;24.220;2023-10-13T13:33:54;4.07;;;2.50;;
22648;SDS011;11491;41.942;24.220;2023-10-13T13:36:22;5.13;;;2.05;;
22648;SDS011;11491;41.942;24.220;2023-10-13T13:38:49;4.18;;;2.20;;
22648;SDS011;11491;41.942;24.220;2023-10-13T13:41:17;5.45;;;3.08;;
22648;SDS011;11491;41.942;24.220;2023-10-13T13:43:44;5.60;;;3.40;;
22648;SDS011;11491;41.942;24.220;2023-10-13T13:46:20;6.20;;;3.15;;
22648;SDS011;11491;41.942;24.220;2023-10-13T13:48:50;3.75;;;2.40;;
22648;SDS011;11491;41.942;24.220;2023-10-13T13:51:24;3.90;;;2.35;;
22648;SDS011;11491;41.942;24.220;2023-10-13T13:53:53;7.05;;;3.25;;
22648;SDS011;11491;41.942;24.220;2023-10-13T13:56:20;7.15;;;2.92;;
22648;SDS011;11491;41.942;24.220;2023-10-13T13:58:50;7.32;;;2.50;;
22648;SDS011;11491;41.942;24.220;2023-10-13T14:01:18;6.45;;;2.85;;
22648;SDS011;11491;41.942;24.220;2023-10-13T14:03:47;9.55;;;5.22;;
22648;SDS011;11491;41.942;24.220;2023-10-13T14:06:16;5.95;;;2.67;;
22648;SDS011;11491;41.942;24.220;2023-10-13T14:08:49;3.50;;;2.20;;
22648;SDS011;11491;41.942;24.220;2023-10-13T14:11:20;4.55;;;4.05;;
22648;SDS011;11491;41.942;24.220;2023-10-13T14:14:05;7.32;;;5.25;;
22648;SDS011;11491;41.942;24.220;2023-10-13T14:16:37;6.32;;;2.17;;
22648;SDS011;11491;41.942;24.220;2023-10-13T14:19:09;6.75;;;3.38;;
22648;SDS011;11491;41.942;24.220;2023-10-13T14:21:36;4.28;;;2.20;;
22648;SDS011;11491;41.942;24.220;2023-10-13T14:24:05;5.07;;;1.80;;
22648;SDS011;11491;41.942;24.220;2023-10-13T14:26:38;3.42;;;1.58;;
22648;SDS011;11491;41.942;24.220;2023-10-13T14:29:08;3.38;;;1.73;;
22648;SDS011;11491;41.942;24.220;2023-10-13T14:31:39;5.75;;;4.25;;
22648;SDS011;11491;41.942;24.220;2023-10-13T14:34:06;5.65;;;2.08;;
22648;SDS011;11491;41.942;24.220;2023-10-13T14:36:33;3.92;;;2.25;;
22648;SDS011;11491;41.942;24.220;2023-10-13T14:39:01;5.93;;;2.90;;
22648;SDS011;11491;41.942;24.220;2023-10-13T14:41:29;5.80;;;3.97;;
22648;SDS011;11491;41.942;24.220;2023-10-13T14:43:56;6.78;;;4.80;;
22648;SDS011;11491;41.942;24.220;2023-10-13T14:46:30;35.33;;;28.65;;
22648;SDS011;11491;41.942;24.220;2023-10-13T14:49:00;9.20;;;7.13;;
22648;SDS011;11491;41.942;24.220;2023-10-13T14:51:27;8.85;;;6.65;;
22648;SDS011;11491;41.942;24.220;2023-10-13T14:53:54;10.50;;;3.35;;
22648;SDS011;11491;41.942;24.220;2023-10-13T14:56:22;6.40;;;3.20;;
22648;SDS011;11491;41.942;24.220;2023-10-13T14:58:52;4.00;;;2.88;;
22648;SDS011;11491;41.942;24.220;2023-10-13T15:01:20;5.22;;;2.00;;
22648;SDS011;11491;41.942;24.220;2023-10-13T15:03:48;17.50;;;11.63;;
22648;SDS011;11491;41.942;24.220;2023-10-13T15:06:15;18.05;;;9.23;;
22648;SDS011;11491;41.942;24.220;2023-10-13T15:08:43;30.27;;;22.80;;
22648;SDS011;11491;41.942;24.220;2023-10-13T15:11:11;33.65;;;23.30;;
22648;SDS011;11491;41.942;24.220;2023-10-13T15:13:39;29.02;;;19.25;;
22648;SDS011;11491;41.942;24.220;2023-10-13T15:16:16;25.95;;;18.33;;
22648;SDS011;11491;41.942;24.220;2023-10-13T15:18:44;26.17;;;18.17;;
22648;SDS011;11491;41.942;24.220;2023-10-13T15:21:11;20.40;;;17.30;;